sensor_id;sensor_type;location;lat;lon;timestamp;temperature;humidity
7248;DHT22;3665;51.034;13.642;2023-04-24T00:00:03;9.00;99.90
7248;DHT22;3665;51.034;13.642;2023-04-24T00:04:49;9.20;99.90
7248;DHT22;3665;51.034;13.642;2023-04-24T00:09:39;9.30;99.90
7248;DHT22;3665;51.034;13.642;2023-04-24T00:14:25;9.40;99.90
7248;DHT22;3665;51.034;13.642;2023-04-24T00:19:19;9.40;99.90
7248;DHT22;3665;51.034;13.642;2023-04-24T00:24:18;9.40;99.90
7248;DHT22;3665;51.034;13.642;2023-04-24T00:29:10;9.40;99.90
7248;DHT22;3665;51.034;13.642;2023-04-24T00:33:54;9.40;99.90
7248;DHT22;3665;51.034;13.642;2023-04-24T00:38:43;9.40;99.90
7248;DHT22;3665;51.034;13.642;2023-04-24T00:43:29;9.40;99.90
7248;DHT22;3665;51.034;13.642;2023-04-24T00:48:19;9.50;99.90
7248;DHT22;3665;51.034;13.642;2023-04-24T00:53:06;9.70;99.90
7248;DHT22;3665;51.034;13.642;2023-04-24T00:58:19;9.70;99.90
7248;DHT22;3665;51.034;13.642;2023-04-24T01:03:17;9.80;99.90
7248;DHT22;3665;51.034;13.642;2023-04-24T01:08:02;9.90;99.90
7248;DHT22;3665;51.034;13.642;2023-04-24T01:12:53;10.00;99.90
7248;DHT22;3665;51.034;13.642;2023-04-24T01:17:38;10.00;99.90
7248;DHT22;3665;51.034;13.642;2023-04-24T01:22:27;10.10;99.90
7248;DHT22;3665;51.034;13.642;2023-04-24T01:27:15;10.20;99.90
7248;DHT22;3665;51.034;13.642;2023-04-24T01:32:02;10.30;99.90
7248;DHT22;3665;51.034;13.642;2023-04-24T01:36:51;10.40;99.90
7248;DHT22;3665;51.034;13.642;2023-04-24T01:47:00;10.60;99.90
7248;DHT22;3665;51.034;13.642;2023-04-24T01:51:46;10.70;99.90
7248;DHT22;3665;51.034;13.642;2023-04-24T01:56:41;10.90;99.90
7248;DHT22;3665;51.034;13.642;2023-04-24T02:01:39;10.80;99.90
7248;DHT22;3665;51.034;13.642;2023-04-24T02:06:27;10.80;99.90
7248;DHT22;3665;51.034;13.642;2023-04-24T02:11:13;10.80;99.90
7248;DHT22;3665;51.034;13.642;2023-04-24T02:16:06;10.80;99.90
7248;DHT22;3665;51.034;13.642;2023-04-24T02:21:10;10.80;99.90
7248;DHT22;3665;51.034;13.642;2023-04-24T02:25:55;10.70;99.90
7248;DHT22;3665;51.034;13.642;2023-04-24T02:30:41;10.60;99.90
7248;DHT22;3665;51.034;13.642;2023-04-24T02:35:30;10.50;99.90
7248;DHT22;3665;51.034;13.642;2023-04-24T02:40:14;10.60;99.90
7248;DHT22;3665;51.034;13.642;2023-04-24T02:45:12;10.60;99.90
7248;DHT22;3665;51.034;13.642;2023-04-24T02:49:58;10.70;99.90
7248;DHT22;3665;51.034;13.642;2023-04-24T02:54:46;10.90;99.90
7248;DHT22;3665;51.034;13.642;2023-04-24T02:59:35;10.90;99.90
7248;DHT22;3665;51.034;13.642;2023-04-24T03:09:59;11.00;99.90
7248;DHT22;3665;51.034;13.642;2023-04-24T03:14:46;10.90;99.90
7248;DHT22;3665;51.034;13.642;2023-04-24T03:19:32;10.90;99.90
7248;DHT22;3665;51.034;13.642;2023-04-24T03:24:22;10.90;99.90
7248;DHT22;3665;51.034;13.642;2023-04-24T03:29:11;11.10;99.90
7248;DHT22;3665;51.034;13.642;2023-04-24T03:33:58;11.10;95.70
7248;DHT22;3665;51.034;13.642;2023-04-24T03:38:48;11.10;59.40
7248;DHT22;3665;51.034;13.642;2023-04-24T03:43:48;11.10;54.20
7248;DHT22;3665;51.034;13.642;2023-04-24T03:48:39;11.10;39.20
7248;DHT22;3665;51.034;13.642;2023-04-24T03:53:27;11.10;28.80
7248;DHT22;3665;51.034;13.642;2023-04-24T03:58:14;11.10;13.90
7248;DHT22;3665;51.034;13.642;2023-04-24T04:03:01;11.10;3.20
7248;DHT22;3665;51.034;13.642;2023-04-24T04:07:58;11.10;1.00
7248;DHT22;3665;51.034;13.642;2023-04-24T04:12:55;11.20;1.00
7248;DHT22;3665;51.034;13.642;2023-04-24T04:17:45;11.20;1.00
7248;DHT22;3665;51.034;13.642;2023-04-24T04:22:32;11.30;1.00
7248;DHT22;3665;51.034;13.642;2023-04-24T04:27:35;11.20;1.00
7248;DHT22;3665;51.034;13.642;2023-04-24T04:32:42;11.20;1.00
7248;DHT22;3665;51.034;13.642;2023-04-24T04:37:26;11.20;1.00
7248;DHT22;3665;51.034;13.642;2023-04-24T04:42:48;11.20;1.00
7248;DHT22;3665;51.034;13.642;2023-04-24T04:47:36;11.20;1.00
7248;DHT22;3665;51.034;13.642;2023-04-24T04:52:23;11.20;1.00
7248;DHT22;3665;51.034;13.642;2023-04-24T04:57:45;11.30;1.00
7248;DHT22;3665;51.034;13.642;2023-04-24T05:02:29;11.50;1.00
7248;DHT22;3665;51.034;13.642;2023-04-24T05:07:22;11.50;1.00
7248;DHT22;3665;51.034;13.642;2023-04-24T05:12:38;11.80;1.00
7248;DHT22;3665;51.034;13.642;2023-04-24T05:17:27;11.90;1.00
7248;DHT22;3665;51.034;13.642;2023-04-24T05:22:14;12.00;1.00
7248;DHT22;3665;51.034;13.642;2023-04-24T05:27:12;12.10;1.00
7248;DHT22;3665;51.034;13.642;2023-04-24T05:32:03;12.20;1.00
7248;DHT22;3665;51.034;13.642;2023-04-24T05:37:00;12.30;1.00
7248;DHT22;3665;51.034;13.642;2023-04-24T05:41:47;12.40;1.00
7248;DHT22;3665;51.034;13.642;2023-04-24T05:46:38;12.40;1.00
7248;DHT22;3665;51.034;13.642;2023-04-24T05:51:42;12.70;1.00
7248;DHT22;3665;51.034;13.642;2023-04-24T05:56:46;12.90;1.00
7248;DHT22;3665;51.034;13.642;2023-04-24T06:02:21;12.90;1.00
7248;DHT22;3665;51.034;13.642;2023-04-24T06:07:10;13.00;1.00
7248;DHT22;3665;51.034;13.642;2023-04-24T06:11:57;13.00;1.00
7248;DHT22;3665;51.034;13.642;2023-04-24T06:16:59;13.10;1.00
7248;DHT22;3665;51.034;13.642;2023-04-24T06:21:55;13.10;1.00
7248;DHT22;3665;51.034;13.642;2023-04-24T06:26:52;13.10;1.00
7248;DHT22;3665;51.034;13.642;2023-04-24T06:31:40;13.40;1.00
7248;DHT22;3665;51.034;13.642;2023-04-24T06:36:27;13.50;1.00
7248;DHT22;3665;51.034;13.642;2023-04-24T06:41:17;13.60;1.00
7248;DHT22;3665;51.034;13.642;2023-04-24T06:46:06;13.60;1.00
7248;DHT22;3665;51.034;13.642;2023-04-24T06:50:53;13.80;1.00
7248;DHT22;3665;51.034;13.642;2023-04-24T06:55:40;14.20;1.00
7248;DHT22;3665;51.034;13.642;2023-04-24T07:00:28;14.70;1.00
7248;DHT22;3665;51.034;13.642;2023-04-24T07:05:17;15.10;1.00
7248;DHT22;3665;51.034;13.642;2023-04-24T07:10:06;15.10;1.00
7248;DHT22;3665;51.034;13.642;2023-04-24T07:14:50;14.90;1.00
7248;DHT22;3665;51.034;13.642;2023-04-24T07:19:40;14.40;1.00
7248;DHT22;3665;51.034;13.642;2023-04-24T07:24:26;14.50;1.00
7248;DHT22;3665;51.034;13.642;2023-04-24T07:29:17;14.30;1.00
7248;DHT22;3665;51.034;13.642;2023-04-24T07:34:03;14.60;1.00
7248;DHT22;3665;51.034;13.642;2023-04-24T07:38:52;14.80;1.00
7248;DHT22;3665;51.034;13.642;2023-04-24T07:43:39;15.00;1.00
7248;DHT22;3665;51.034;13.642;2023-04-24T07:54:07;15.40;1.00
7248;DHT22;3665;51.034;13.642;2023-04-24T07:59:09;15.40;1.00
7248;DHT22;3665;51.034;13.642;2023-04-24T08:03:56;15.40;1.00
7248;DHT22;3665;51.034;13.642;2023-04-24T08:08:44;15.50;1.00
7248;DHT22;3665;51.034;13.642;2023-04-24T08:13:32;15.70;1.00
7248;DHT22;3665;51.034;13.642;2023-04-24T08:18:19;16.30;1.00
7248;DHT22;3665;51.034;13.642;2023-04-24T08:23:07;16.50;1.00
7248;DHT22;3665;51.034;13.642;2023-04-24T08:27:55;16.50;1.00
7248;DHT22;3665;51.034;13.642;2023-04-24T08:32:48;16.20;1.00
7248;DHT22;3665;51.034;13.642;2023-04-24T08:37:51;16.20;1.00
7248;DHT22;3665;51.034;13.642;2023-04-24T08:42:37;16.40;1.00
7248;DHT22;3665;51.034;13.642;2023-04-24T08:47:25;16.20;1.00
7248;DHT22;3665;51.034;13.642;2023-04-24T08:52:12;16.20;1.00
7248;DHT22;3665;51.034;13.642;2023-04-24T08:57:00;16.30;1.00
7248;DHT22;3665;51.034;13.642;2023-04-24T09:01:48;16.20;1.00
7248;DHT22;3665;51.034;13.642;2023-04-24T09:06:34;16.20;1.00
7248;DHT22;3665;51.034;13.642;2023-04-24T09:11:29;16.20;1.00
7248;DHT22;3665;51.034;13.642;2023-04-24T09:16:31;16.70;1.00
7248;DHT22;3665;51.034;13.642;2023-04-24T09:21:32;16.10;1.00
7248;DHT22;3665;51.034;13.642;2023-04-24T09:26:38;16.40;1.00
7248;DHT22;3665;51.034;13.642;2023-04-24T09:31:22;16.70;1.00
7248;DHT22;3665;51.034;13.642;2023-04-24T09:36:13;16.60;1.00
7248;DHT22;3665;51.034;13.642;2023-04-24T09:41:01;16.50;1.00
7248;DHT22;3665;51.034;13.642;2023-04-24T09:46:06;16.50;1.00
7248;DHT22;3665;51.034;13.642;2023-04-24T09:50:52;16.00;1.00
7248;DHT22;3665;51.034;13.642;2023-04-24T09:55:39;16.60;1.00
7248;DHT22;3665;51.034;13.642;2023-04-24T10:00:32;16.50;1.00
7248;DHT22;3665;51.034;13.642;2023-04-24T10:05:17;16.60;1.00
7248;DHT22;3665;51.034;13.642;2023-04-24T10:10:05;16.50;1.00
7248;DHT22;3665;51.034;13.642;2023-04-24T10:14:51;16.70;1.00
7248;DHT22;3665;51.034;13.642;2023-04-24T10:19:43;16.20;1.00
7248;DHT22;3665;51.034;13.642;2023-04-24T10:24:47;16.50;1.00
7248;DHT22;3665;51.034;13.642;2023-04-24T10:29:32;17.00;1.00
7248;DHT22;3665;51.034;13.642;2023-04-24T10:34:36;17.50;1.00
7248;DHT22;3665;51.034;13.642;2023-04-24T10:39:22;17.50;1.00
7248;DHT22;3665;51.034;13.642;2023-04-24T10:44:15;17.10;1.00
7248;DHT22;3665;51.034;13.642;2023-04-24T10:48:59;17.10;1.00
7248;DHT22;3665;51.034;13.642;2023-04-24T10:53:46;17.10;1.00
7248;DHT22;3665;51.034;13.642;2023-04-24T10:58:42;16.80;1.00
7248;DHT22;3665;51.034;13.642;2023-04-24T11:09:03;16.40;1.00
7248;DHT22;3665;51.034;13.642;2023-04-24T11:14:07;16.10;1.00
7248;DHT22;3665;51.034;13.642;2023-04-24T11:19:00;16.00;1.00
7248;DHT22;3665;51.034;13.642;2023-04-24T11:23:55;16.00;1.00
7248;DHT22;3665;51.034;13.642;2023-04-24T11:28:46;16.40;1.00
7248;DHT22;3665;51.034;13.642;2023-04-24T11:33:47;17.30;1.00
7248;DHT22;3665;51.034;13.642;2023-04-24T11:38:39;17.80;1.00
7248;DHT22;3665;51.034;13.642;2023-04-24T11:43:23;18.30;1.00
7248;DHT22;3665;51.034;13.642;2023-04-24T11:48:11;18.00;1.00
7248;DHT22;3665;51.034;13.642;2023-04-24T11:53:04;17.90;1.00
7248;DHT22;3665;51.034;13.642;2023-04-24T11:57:51;17.30;1.00
7248;DHT22;3665;51.034;13.642;2023-04-24T12:03:09;17.00;1.00
7248;DHT22;3665;51.034;13.642;2023-04-24T12:08:04;16.30;1.00
7248;DHT22;3665;51.034;13.642;2023-04-24T12:13:02;15.90;1.00
7248;DHT22;3665;51.034;13.642;2023-04-24T12:17:51;15.60;1.00
7248;DHT22;3665;51.034;13.642;2023-04-24T12:23:28;15.40;1.00
7248;DHT22;3665;51.034;13.642;2023-04-24T12:33:50;16.60;1.00
7248;DHT22;3665;51.034;13.642;2023-04-24T12:38:35;16.10;1.00
7248;DHT22;3665;51.034;13.642;2023-04-24T12:43:23;16.20;1.00
7248;DHT22;3665;51.034;13.642;2023-04-24T12:48:33;16.10;1.00
7248;DHT22;3665;51.034;13.642;2023-04-24T12:53:18;16.10;1.00
7248;DHT22;3665;51.034;13.642;2023-04-24T12:58:05;16.60;1.00
7248;DHT22;3665;51.034;13.642;2023-04-24T13:02:53;16.90;1.00
7248;DHT22;3665;51.034;13.642;2023-04-24T13:07:39;16.90;1.00
7248;DHT22;3665;51.034;13.642;2023-04-24T13:12:35;17.00;1.00
7248;DHT22;3665;51.034;13.642;2023-04-24T13:17:31;17.40;1.00
7248;DHT22;3665;51.034;13.642;2023-04-24T13:22:19;18.00;1.00
7248;DHT22;3665;51.034;13.642;2023-04-24T13:27:10;17.70;1.00
7248;DHT22;3665;51.034;13.642;2023-04-24T13:32:02;17.20;1.00
7248;DHT22;3665;51.034;13.642;2023-04-24T13:36:57;17.00;1.00
7248;DHT22;3665;51.034;13.642;2023-04-24T13:41:47;17.40;1.00
7248;DHT22;3665;51.034;13.642;2023-04-24T13:46:37;16.40;1.00
7248;DHT22;3665;51.034;13.642;2023-04-24T13:51:32;15.60;1.00
7248;DHT22;3665;51.034;13.642;2023-04-24T13:56:32;15.70;1.00
7248;DHT22;3665;51.034;13.642;2023-04-24T14:01:51;15.80;1.00
7248;DHT22;3665;51.034;13.642;2023-04-24T14:12:29;16.10;1.00
7248;DHT22;3665;51.034;13.642;2023-04-24T14:17:15;16.70;1.00
7248;DHT22;3665;51.034;13.642;2023-04-24T14:22:05;17.00;1.00
7248;DHT22;3665;51.034;13.642;2023-04-24T14:26:51;16.50;1.00
7248;DHT22;3665;51.034;13.642;2023-04-24T14:31:54;16.50;1.00
7248;DHT22;3665;51.034;13.642;2023-04-24T14:36:48;16.70;1.00
7248;DHT22;3665;51.034;13.642;2023-04-24T14:41:48;16.60;1.00
7248;DHT22;3665;51.034;13.642;2023-04-24T14:46:35;16.40;1.00
7248;DHT22;3665;51.034;13.642;2023-04-24T14:51:26;16.80;1.00
7248;DHT22;3665;51.034;13.642;2023-04-24T14:56:12;16.90;1.00
7248;DHT22;3665;51.034;13.642;2023-04-24T15:00:59;16.50;1.00
7248;DHT22;3665;51.034;13.642;2023-04-24T15:05:51;16.30;1.00
7248;DHT22;3665;51.034;13.642;2023-04-24T15:10:36;16.50;1.00
7248;DHT22;3665;51.034;13.642;2023-04-24T15:15:41;16.70;1.00
7248;DHT22;3665;51.034;13.642;2023-04-24T15:20:28;16.40;1.00
7248;DHT22;3665;51.034;13.642;2023-04-24T15:25:15;16.00;1.00
7248;DHT22;3665;51.034;13.642;2023-04-24T15:30:19;15.80;1.00
7248;DHT22;3665;51.034;13.642;2023-04-24T15:35:09;15.40;1.00
7248;DHT22;3665;51.034;13.642;2023-04-24T15:39:56;15.50;1.00
7248;DHT22;3665;51.034;13.642;2023-04-24T15:50:56;15.20;1.00
7248;DHT22;3665;51.034;13.642;2023-04-24T15:55:55;15.20;1.00
7248;DHT22;3665;51.034;13.642;2023-04-24T16:00:46;15.20;1.00
7248;DHT22;3665;51.034;13.642;2023-04-24T16:05:33;14.70;1.00
7248;DHT22;3665;51.034;13.642;2023-04-24T16:10:28;14.60;1.00
7248;DHT22;3665;51.034;13.642;2023-04-24T16:15:41;14.60;1.00
7248;DHT22;3665;51.034;13.642;2023-04-24T16:25:36;14.40;1.00
7248;DHT22;3665;51.034;13.642;2023-04-24T16:30:37;14.20;1.00
7248;DHT22;3665;51.034;13.642;2023-04-24T16:35:40;14.20;1.00
7248;DHT22;3665;51.034;13.642;2023-04-24T16:41:03;14.10;1.00
7248;DHT22;3665;51.034;13.642;2023-04-24T16:45:47;13.60;1.00
7248;DHT22;3665;51.034;13.642;2023-04-24T16:50:34;13.30;1.00
7248;DHT22;3665;51.034;13.642;2023-04-24T16:55:20;13.40;1.00
7248;DHT22;3665;51.034;13.642;2023-04-24T17:00:16;13.00;1.00
7248;DHT22;3665;51.034;13.642;2023-04-24T17:05:03;13.20;1.00
7248;DHT22;3665;51.034;13.642;2023-04-24T17:09:48;13.20;1.00
7248;DHT22;3665;51.034;13.642;2023-04-24T17:14:35;13.70;1.00
7248;DHT22;3665;51.034;13.642;2023-04-24T17:19:42;13.80;1.00
7248;DHT22;3665;51.034;13.642;2023-04-24T17:24:29;13.40;1.00
7248;DHT22;3665;51.034;13.642;2023-04-24T17:29:21;12.70;1.00
7248;DHT22;3665;51.034;13.642;2023-04-24T17:34:12;12.30;1.00
7248;DHT22;3665;51.034;13.642;2023-04-24T17:39:10;12.00;1.00
7248;DHT22;3665;51.034;13.642;2023-04-24T17:43:57;12.00;1.00
7248;DHT22;3665;51.034;13.642;2023-04-24T17:48:43;11.90;1.00
7248;DHT22;3665;51.034;13.642;2023-04-24T17:53:33;11.90;1.00
7248;DHT22;3665;51.034;13.642;2023-04-24T17:58:23;11.80;1.00
7248;DHT22;3665;51.034;13.642;2023-04-24T18:03:55;11.70;1.00
7248;DHT22;3665;51.034;13.642;2023-04-24T18:08:43;11.60;1.00
7248;DHT22;3665;51.034;13.642;2023-04-24T18:13:49;11.40;1.00
7248;DHT22;3665;51.034;13.642;2023-04-24T18:18:36;11.20;1.00
7248;DHT22;3665;51.034;13.642;2023-04-24T18:23:23;10.90;1.00
7248;DHT22;3665;51.034;13.642;2023-04-24T18:28:36;10.80;1.00
7248;DHT22;3665;51.034;13.642;2023-04-24T18:33:50;10.60;1.00
7248;DHT22;3665;51.034;13.642;2023-04-24T18:38:54;10.40;1.00
7248;DHT22;3665;51.034;13.642;2023-04-24T18:43:43;10.20;1.00
7248;DHT22;3665;51.034;13.642;2023-04-24T18:49:32;10.20;1.00
7248;DHT22;3665;51.034;13.642;2023-04-24T18:54:40;10.10;1.00
7248;DHT22;3665;51.034;13.642;2023-04-24T18:59:27;10.10;1.00
7248;DHT22;3665;51.034;13.642;2023-04-24T19:04:12;10.10;1.00
7248;DHT22;3665;51.034;13.642;2023-04-24T19:09:03;10.20;1.00
7248;DHT22;3665;51.034;13.642;2023-04-24T19:14:04;10.00;1.00
7248;DHT22;3665;51.034;13.642;2023-04-24T19:19:07;9.90;1.00
7248;DHT22;3665;51.034;13.642;2023-04-24T19:24:46;9.90;1.00
7248;DHT22;3665;51.034;13.642;2023-04-24T19:29:32;9.90;1.00
7248;DHT22;3665;51.034;13.642;2023-04-24T19:34:36;9.70;1.00
7248;DHT22;3665;51.034;13.642;2023-04-24T19:39:26;9.50;1.00
7248;DHT22;3665;51.034;13.642;2023-04-24T19:44:14;9.40;1.00
7248;DHT22;3665;51.034;13.642;2023-04-24T19:49:48;9.40;1.00
7248;DHT22;3665;51.034;13.642;2023-04-24T19:54:36;9.40;1.00
7248;DHT22;3665;51.034;13.642;2023-04-24T19:59:25;9.30;1.00
7248;DHT22;3665;51.034;13.642;2023-04-24T20:04:12;9.20;1.00
7248;DHT22;3665;51.034;13.642;2023-04-24T20:08:59;9.20;1.00
7248;DHT22;3665;51.034;13.642;2023-04-24T20:13:46;9.10;1.00
7248;DHT22;3665;51.034;13.642;2023-04-24T20:18:53;9.10;1.00
7248;DHT22;3665;51.034;13.642;2023-04-24T20:23:40;9.10;1.00
7248;DHT22;3665;51.034;13.642;2023-04-24T20:28:27;9.20;1.00
7248;DHT22;3665;51.034;13.642;2023-04-24T20:33:16;9.20;1.00
7248;DHT22;3665;51.034;13.642;2023-04-24T20:38:23;9.00;1.00
7248;DHT22;3665;51.034;13.642;2023-04-24T20:43:07;9.00;1.00
7248;DHT22;3665;51.034;13.642;2023-04-24T20:47:55;8.90;1.00
7248;DHT22;3665;51.034;13.642;2023-04-24T20:52:45;8.80;1.00
7248;DHT22;3665;51.034;13.642;2023-04-24T20:57:36;8.60;1.00
7248;DHT22;3665;51.034;13.642;2023-04-24T21:02:20;8.50;1.00
7248;DHT22;3665;51.034;13.642;2023-04-24T21:07:07;8.40;1.00
7248;DHT22;3665;51.034;13.642;2023-04-24T21:11:56;8.40;1.00
7248;DHT22;3665;51.034;13.642;2023-04-24T21:16:44;8.40;1.00
7248;DHT22;3665;51.034;13.642;2023-04-24T21:21:40;8.50;1.00
7248;DHT22;3665;51.034;13.642;2023-04-24T21:26:36;8.50;1.00
7248;DHT22;3665;51.034;13.642;2023-04-24T21:31:22;8.60;1.00
7248;DHT22;3665;51.034;13.642;2023-04-24T21:41:21;8.40;1.00
7248;DHT22;3665;51.034;13.642;2023-04-24T21:46:22;8.10;1.00
7248;DHT22;3665;51.034;13.642;2023-04-24T21:51:07;8.10;1.00
7248;DHT22;3665;51.034;13.642;2023-04-24T21:56:15;8.00;1.00
7248;DHT22;3665;51.034;13.642;2023-04-24T22:01:01;7.90;1.00
7248;DHT22;3665;51.034;13.642;2023-04-24T22:05:48;8.00;1.00
7248;DHT22;3665;51.034;13.642;2023-04-24T22:10:38;7.80;1.00
7248;DHT22;3665;51.034;13.642;2023-04-24T22:15:39;7.70;1.00
7248;DHT22;3665;51.034;13.642;2023-04-24T22:20:31;7.60;1.00
7248;DHT22;3665;51.034;13.642;2023-04-24T22:25:16;7.40;1.00
7248;DHT22;3665;51.034;13.642;2023-04-24T22:30:05;7.20;1.00
7248;DHT22;3665;51.034;13.642;2023-04-24T22:34:51;7.00;1.00
7248;DHT22;3665;51.034;13.642;2023-04-24T22:39:41;6.90;1.00
7248;DHT22;3665;51.034;13.642;2023-04-24T22:44:27;6.90;1.00
7248;DHT22;3665;51.034;13.642;2023-04-24T22:49:17;6.60;1.00
7248;DHT22;3665;51.034;13.642;2023-04-24T22:54:04;6.60;1.00
7248;DHT22;3665;51.034;13.642;2023-04-24T22:58:52;6.40;1.00
7248;DHT22;3665;51.034;13.642;2023-04-24T23:03:41;6.30;1.00
7248;DHT22;3665;51.034;13.642;2023-04-24T23:08:27;6.30;1.00
7248;DHT22;3665;51.034;13.642;2023-04-24T23:13:18;6.20;1.00
7248;DHT22;3665;51.034;13.642;2023-04-24T23:18:21;6.00;1.00
7248;DHT22;3665;51.034;13.642;2023-04-24T23:23:06;6.00;1.00
7248;DHT22;3665;51.034;13.642;2023-04-24T23:27:57;6.00;1.00
7248;DHT22;3665;51.034;13.642;2023-04-24T23:32:44;6.20;1.00
7248;DHT22;3665;51.034;13.642;2023-04-24T23:37:33;6.40;1.00
7248;DHT22;3665;51.034;13.642;2023-04-24T23:42:19;6.60;1.00
7248;DHT22;3665;51.034;13.642;2023-04-24T23:47:16;6.70;1.00
7248;DHT22;3665;51.034;13.642;2023-04-24T23:52:30;6.90;1.00
7248;DHT22;3665;51.034;13.642;2023-04-24T23:57:17;7.00;1.00
